Time;durP1;ratioP1;P1;durP2;ratioP2;P2;SDS_P1;SDS_P2;PMS_P1;PMS_P2;Temp;Humidity;BMP_temperature;BMP_pressure;BME280_temperature;BME280_humidity;BME280_pressure;Samples;Min_cycle;Max_cycle;Signal;HPM_P1;HPM_P2
2023/11/01 00:01:04;;;;;;;8.43;2.28;;;11.10;99.90;;;;;;4978228;28;20023;-77
2023/11/01 00:03:31;;;;;;;10.98;1.92;;;11.10;99.90;;;;;;4977169;28;20042;-77
2023/11/01 00:05:57;;;;;;;13.23;1.65;;;11.10;99.90;;;;;;4960778;28;20038;-77
2023/11/01 00:08:22;;;;;;;10.20;1.83;;;11.10;99.90;;;;;;4960644;28;20026;-77
2023/11/01 00:10:48;;;;;;;6.07;1.65;;;11.10;99.90;;;;;;4978065;28;20406;-76
2023/11/01 00:13:13;;;;;;;10.88;2.03;;;11.20;99.90;;;;;;4977932;28;20062;-77
2023/11/01 00:15:42;;;;;;;7.70;2.13;;;11.10;99.90;;;;;;4977873;28;20031;-77
2023/11/01 00:18:07;;;;;;;5.60;1.00;;;11.10;99.90;;;;;;4978145;28;20158;-77
2023/11/01 00:20:33;;;;;;;7.00;1.30;;;11.10;99.90;;;;;;4979178;28;20051;-77
2023/11/01 00:22:59;;;;;;;4.75;1.05;;;11.10;99.90;;;;;;4961038;28;20355;-76
2023/11/01 00:25:24;;;;;;;8.75;1.75;;;11.10;99.90;;;;;;4978732;28;20125;-78
2023/11/01 00:27:50;;;;;;;7.70;1.08;;;11.10;99.90;;;;;;4978895;28;20482;-78
2023/11/01 00:30:15;;;;;;;7.72;0.57;;;11.00;99.90;;;;;;4979288;28;20023;-78
2023/11/01 00:32:41;;;;;;;5.97;1.15;;;11.10;99.90;;;;;;4979010;28;20023;-78
2023/11/01 00:35:10;;;;;;;5.85;0.75;;;11.10;99.90;;;;;;4979367;28;20452;-78
2023/11/01 00:37:35;;;;;;;4.90;0.50;;;11.10;99.90;;;;;;4979097;28;20042;-78
2023/11/01 00:40:02;;;;;;;3.53;1.23;;;11.10;99.90;;;;;;4962024;28;20030;-78
2023/11/01 00:42:28;;;;;;;5.35;0.70;;;11.10;99.90;;;;;;4961295;28;20027;-78
2023/11/01 00:44:53;;;;;;;5.68;1.13;;;11.20;99.90;;;;;;4978674;28;20031;-77
2023/11/01 00:47:19;;;;;;;8.50;0.80;;;11.10;99.90;;;;;;4978061;28;20031;-77
2023/11/01 00:49:44;;;;;;;11.48;2.22;;;11.20;99.90;;;;;;4978397;28;20101;-77
2023/11/01 00:52:10;;;;;;;5.32;2.28;;;11.20;99.90;;;;;;4977032;28;20103;-77
2023/11/01 00:54:35;;;;;;;10.20;2.10;;;11.20;99.90;;;;;;4977229;28;20031;-76
2023/11/01 00:57:01;;;;;;;9.40;2.05;;;11.20;99.90;;;;;;4977207;28;20027;-77
2023/11/01 00:59:27;;;;;;;5.15;1.58;;;11.20;99.90;;;;;;4977038;28;20027;-76
2023/11/01 01:01:52;;;;;;;6.82;1.65;;;11.20;99.90;;;;;;4977944;28;20023;-77
2023/11/01 01:04:18;;;;;;;6.72;1.88;;;11.20;99.90;;;;;;4959673;28;20033;-76
2023/11/01 01:06:43;;;;;;;11.20;2.38;;;11.20;99.90;;;;;;4976784;28;20030;-76
2023/11/01 01:09:12;;;;;;;9.43;2.15;;;11.20;99.90;;;;;;4959393;28;20470;-76
2023/11/01 01:11:38;;;;;;;13.35;2.38;;;11.20;99.90;;;;;;4959483;28;20037;-77
2023/11/01 01:14:03;;;;;;;5.40;1.92;;;11.20;99.90;;;;;;4976999;28;20031;-76
2023/11/01 01:16:29;;;;;;;5.45;1.88;;;11.20;99.90;;;;;;4959262;28;20109;-76
2023/11/01 01:18:54;;;;;;;4.95;1.80;;;11.20;99.90;;;;;;4976690;28;20034;-76
2023/11/01 01:21:20;;;;;;;5.50;1.75;;;11.10;99.90;;;;;;4976676;28;20041;-77
2023/11/01 01:23:45;;;;;;;7.32;2.85;;;11.10;99.90;;;;;;4959311;28;20389;-76
2023/11/01 01:26:11;;;;;;;7.50;2.50;;;11.10;99.90;;;;;;4959311;28;20045;-76
2023/11/01 01:28:36;;;;;;;12.43;3.25;;;11.10;99.90;;;;;;4959278;28;20023;-78
2023/11/01 01:31:02;;;;;;;5.50;2.00;;;11.10;99.90;;;;;;4976486;28;20486;-76
2023/11/01 01:33:28;;;;;;;8.23;2.35;;;11.10;99.90;;;;;;4975183;28;20030;-77
2023/11/01 01:35:53;;;;;;;9.80;3.00;;;11.10;99.90;;;;;;4976395;28;20106;-76
2023/11/01 01:38:19;;;;;;;10.90;2.40;;;11.10;99.90;;;;;;4976136;28;20026;-76
2023/11/01 01:40:44;;;;;;;6.47;2.67;;;11.20;99.90;;;;;;4976405;28;20034;-76
2023/11/01 01:43:16;;;;;;;12.43;2.63;;;11.20;99.90;;;;;;4959012;28;20022;-76
2023/11/01 01:45:41;;;;;;;11.02;2.45;;;12.10;99.90;;;;;;4976165;28;20030;-76
2023/11/01 01:48:07;;;;;;;11.32;2.75;;;11.20;99.90;;;;;;4976169;28;20475;-77
2023/11/01 01:50:34;;;;;;;11.45;3.00;;;11.20;99.90;;;;;;4976682;28;20023;-77
2023/11/01 01:53:00;;;;;;;8.07;2.58;;;11.10;99.90;;;;;;4974978;28;20023;-77
2023/11/01 01:55:25;;;;;;;7.72;2.65;;;11.20;99.90;;;;;;4974791;28;20022;-77
2023/11/01 01:57:52;;;;;;;10.98;2.17;;;11.20;99.90;;;;;;4975946;28;20023;-76
2023/11/01 02:00:18;;;;;;;12.60;1.88;;;11.20;99.90;;;;;;4976544;28;20025;-77
2023/11/01 02:02:45;;;;;;;11.30;1.88;;;11.20;99.90;;;;;;4975514;28;20019;-77
2023/11/01 02:05:11;;;;;;;9.98;1.83;;;11.40;99.90;;;;;;4975965;28;20023;-77
2023/11/01 02:07:36;;;;;;;9.95;1.85;;;11.20;99.90;;;;;;4975820;28;20055;-77
2023/11/01 02:10:03;;;;;;;10.90;1.90;;;11.20;99.90;;;;;;4975973;28;20054;-77
2023/11/01 02:12:29;;;;;;;4.85;1.60;;;;;;;;;;4975597;28;20039;-77
2023/11/01 02:14:54;;;;;;;8.13;1.67;;;11.20;99.90;;;;;;4975705;28;20102;-77
2023/11/01 02:17:20;;;;;;;10.32;1.48;;;12.20;99.90;;;;;;4975652;28;20025;-76
2023/11/01 02:19:45;;;;;;;11.07;1.27;;;11.20;99.90;;;;;;4958433;28;20059;-77
2023/11/01 02:22:11;;;;;;;9.93;1.05;;;11.10;99.90;;;;;;4975499;28;20023;-77
2023/11/01 02:24:37;;;;;;;9.40;1.65;;;11.20;99.90;;;;;;4975493;28;20494;-76
2023/11/01 02:27:03;;;;;;;5.40;1.08;;;11.10;99.90;;;;;;4958189;28;20035;-76
2023/11/01 02:29:29;;;;;;;10.35;1.75;;;11.20;99.90;;;;;;4975283;28;20435;-76
2023/11/01 02:31:54;;;;;;;13.88;1.20;;;11.10;99.90;;;;;;4975879;28;20482;-78
2023/11/01 02:34:20;;;;;;;5.05;0.98;;;11.10;99.90;;;;;;4975493;28;20027;-76
2023/11/01 02:36:47;;;;;;;8.23;1.05;;;;;;;;;;4958028;28;20033;-77
2023/11/01 02:39:13;;;;;;;4.93;1.02;;;11.10;99.90;;;;;;4975552;28;20026;-77
2023/11/01 02:41:38;;;;;;;4.00;1.08;;;11.10;99.90;;;;;;4958153;28;20394;-77
2023/11/01 02:44:06;;;;;;;10.63;1.30;;;11.10;99.90;;;;;;4958106;28;20093;-77
2023/11/01 02:46:32;;;;;;;7.30;2.23;;;11.10;99.90;;;;;;4958061;28;20062;-77
2023/11/01 02:48:57;;;;;;;4.05;0.57;;;11.10;99.90;;;;;;4975235;28;20125;-77
2023/11/01 02:51:23;;;;;;;3.30;0.85;;;11.10;99.90;;;;;;4975637;28;20034;-77
2023/11/01 02:53:48;;;;;;;7.43;1.17;;;11.20;99.90;;;;;;4975607;28;20030;-77
2023/11/01 02:56:14;;;;;;;5.70;1.20;;;11.10;99.90;;;;;;4957575;28;20027;-77
2023/11/01 02:58:40;;;;;;;9.05;1.15;;;11.10;99.90;;;;;;4975194;28;20031;-77
2023/11/01 03:01:07;;;;;;;4.60;1.08;;;11.10;99.90;;;;;;4975067;28;20019;-77
2023/11/01 03:03:32;;;;;;;9.95;1.58;;;11.10;99.90;;;;;;4975120;28;20027;-77
2023/11/01 03:05:58;;;;;;;7.50;0.93;;;11.20;99.90;;;;;;4974986;28;20486;-76
2023/11/01 03:08:23;;;;;;;6.22;0.75;;;11.20;99.90;;;;;;4975018;28;20023;-77
2023/11/01 03:10:49;;;;;;;4.18;0.70;;;11.10;99.90;;;;;;4975559;28;20031;-76
2023/11/01 03:13:15;;;;;;;4.45;0.80;;;11.20;99.90;;;;;;4956721;28;20039;-77
2023/11/01 03:15:40;;;;;;;9.85;1.42;;;11.10;99.90;;;;;;4957309;28;20065;-76
2023/11/01 03:18:06;;;;;;;5.05;0.65;;;11.10;99.90;;;;;;4974402;28;20042;-77
2023/11/01 03:20:33;;;;;;;4.47;0.60;;;11.10;99.90;;;;;;4974686;28;20031;-77
2023/11/01 03:23:00;;;;;;;3.60;0.60;;;11.10;99.90;;;;;;4957433;28;20030;-77
2023/11/01 03:25:26;;;;;;;7.43;0.60;;;11.20;99.90;;;;;;4974923;28;20027;-77
2023/11/01 03:27:51;;;;;;;10.88;2.10;;;11.10;99.90;;;;;;4974642;28;20433;-76
2023/11/01 03:30:17;;;;;;;4.30;0.32;;;11.60;99.90;;;;;;4975058;28;20035;-77
2023/11/01 03:32:43;;;;;;;3.90;0.20;;;11.10;99.90;;;;;;4974964;28;20106;-78
2023/11/01 03:35:08;;;;;;;6.00;1.05;;;11.20;99.90;;;;;;4973259;28;20022;-78
2023/11/01 03:37:34;;;;;;;5.95;1.10;;;11.20;99.90;;;;;;4975662;28;20036;-78
2023/11/01 03:39:59;;;;;;;6.07;0.43;;;11.20;99.90;;;;;;4974873;28;20561;-76
2023/11/01 03:42:25;;;;;;;8.00;0.57;;;11.20;99.90;;;;;;4974533;28;20478;-77
2023/11/01 03:44:50;;;;;;;5.05;1.05;;;11.20;99.90;;;;;;4957053;28;20078;-76
2023/11/01 03:47:16;;;;;;;7.43;0.80;;;11.20;99.90;;;;;;4974675;28;20027;-78
2023/11/01 03:49:41;;;;;;;4.03;0.68;;;11.20;99.90;;;;;;4974815;28;20035;-76
2023/11/01 03:52:07;;;;;;;6.43;0.50;;;11.20;99.90;;;;;;4974833;28;20050;-78
2023/11/01 03:54:33;;;;;;;3.70;0.57;;;11.30;99.90;;;;;;4957052;28;20065;-77
2023/11/01 03:57:02;;;;;;;5.35;0.90;;;11.20;99.90;;;;;;4956944;28;20023;-77
2023/11/01 03:59:30;;;;;;;1.92;0.70;;;11.20;99.90;;;;;;4972977;28;20030;-76
2023/11/01 04:01:56;;;;;;;3.67;0.45;;;12.90;99.90;;;;;;4974583;28;20127;-78
2023/11/01 04:04:22;;;;;;;5.10;0.85;;;11.20;99.90;;;;;;4956954;28;20495;-76
2023/11/01 04:06:47;;;;;;;9.82;1.15;;;11.20;99.90;;;;;;4956753;28;20387;-77
2023/11/01 04:09:13;;;;;;;6.65;1.55;;;11.20;99.90;;;;;;4974358;28;20031;-77
2023/11/01 04:11:38;;;;;;;6.35;0.60;;;11.30;99.90;;;;;;4974432;28;20031;-77
2023/11/01 04:14:04;;;;;;;6.80;1.17;;;11.30;99.90;;;;;;4956847;28;20046;-76
2023/11/01 04:16:30;;;;;;;3.55;1.30;;;11.30;99.90;;;;;;4974464;28;20396;-76
2023/11/01 04:18:59;;;;;;;2.47;0.55;;;11.30;99.90;;;;;;4974003;28;20081;-77
2023/11/01 04:21:25;;;;;;;3.08;0.70;;;11.30;99.90;;;;;;4974110;28;20105;-77
2023/11/01 04:23:52;;;;;;;1.48;0.47;;;11.30;99.90;;;;;;4973999;28;20031;-76
2023/11/01 04:26:18;;;;;;;7.60;0.88;;;11.30;99.90;;;;;;4959875;28;20022;-76
2023/11/01 04:28:44;;;;;;;7.22;1.15;;;11.40;99.90;;;;;;4977662;28;20038;-76
2023/11/01 04:31:10;;;;;;;3.25;0.70;;;11.40;99.90;;;;;;4977811;28;20031;-76
2023/11/01 04:33:37;;;;;;;5.65;1.10;;;11.40;99.90;;;;;;4977821;28;20050;-77
2023/11/01 04:36:08;;;;;;;4.43;0.52;;;11.40;99.90;;;;;;4976432;28;20077;-77
2023/11/01 04:38:37;;;;;;;4.60;0.50;;;11.40;99.90;;;;;;4977389;28;20023;-78
2023/11/01 04:41:03;;;;;;;2.80;0.60;;;11.40;99.90;;;;;;4978223;28;20462;-77
2023/11/01 04:43:29;;;;;;;4.70;1.58;;;11.40;99.90;;;;;;4977442;28;20039;-76
2023/11/01 04:45:55;;;;;;;4.18;0.60;;;11.40;99.90;;;;;;4960006;28;20482;-76
2023/11/01 04:48:21;;;;;;;3.72;0.80;;;11.40;99.90;;;;;;4977288;28;20026;-76
2023/11/01 04:50:48;;;;;;;1.80;0.40;;;11.40;99.90;;;;;;4959938;28;20073;-77
2023/11/01 04:53:17;;;;;;;5.68;0.47;;;11.50;99.90;;;;;;4959745;28;20029;-76
2023/11/01 04:55:43;;;;;;;1.92;0.68;;;11.80;99.90;;;;;;4975953;28;20027;-77
2023/11/01 04:58:08;;;;;;;1.27;0.30;;;11.50;99.90;;;;;;4976959;28;20042;-77
2023/11/01 05:00:34;;;;;;;3.38;0.60;;;11.50;99.90;;;;;;4959654;28;20034;-77
2023/11/01 05:02:59;;;;;;;3.63;0.75;;;11.50;99.90;;;;;;4976946;28;20023;-77
2023/11/01 05:05:25;;;;;;;2.40;0.63;;;11.50;99.90;;;;;;4976962;28;20077;-77
2023/11/01 05:07:51;;;;;;;1.10;0.80;;;11.50;99.90;;;;;;4976869;28;20031;-77
2023/11/01 05:10:17;;;;;;;4.05;1.30;;;11.50;99.90;;;;;;4976806;28;20027;-76
2023/11/01 05:12:42;;;;;;;5.22;1.35;;;11.50;99.90;;;;;;4959487;28;20517;-76
2023/11/01 05:15:08;;;;;;;2.22;1.20;;;11.50;99.90;;;;;;4976755;28;20031;-76
2023/11/01 05:17:34;;;;;;;3.85;1.67;;;11.50;99.90;;;;;;4975760;28;20031;-77
2023/11/01 05:20:00;;;;;;;4.25;1.80;;;11.50;99.90;;;;;;4959550;28;20030;-77
2023/11/01 05:22:28;;;;;;;4.82;2.33;;;11.50;99.90;;;;;;4959465;28;20027;-77
2023/11/01 05:24:53;;;;;;;4.53;2.80;;;11.50;99.90;;;;;;4977242;28;20053;-77
2023/11/01 05:27:19;;;;;;;5.10;2.60;;;11.60;99.90;;;;;;4959299;28;20054;-77
2023/11/01 05:29:48;;;;;;;4.10;2.35;;;11.60;99.90;;;;;;4959460;28;20436;-77
2023/11/01 05:32:14;;;;;;;;;;;11.60;99.90;;;;;;4977147;28;20089;-77
2023/11/01 05:34:40;;;;;;;4.30;2.53;;;11.60;99.90;;;;;;4959263;28;19910;-77
2023/11/01 05:37:09;;;;;;;6.60;3.10;;;11.60;99.90;;;;;;4975931;28;20057;-77
2023/11/01 05:39:35;;;;;;;6.47;3.20;;;11.70;99.90;;;;;;4959108;28;20371;-77
2023/11/01 05:42:00;;;;;;;7.53;3.25;;;12.00;99.90;;;;;;4976870;28;20081;-79
2023/11/01 05:44:30;;;;;;;5.68;2.33;;;11.70;99.90;;;;;;4975177;28;20161;-77
2023/11/01 05:46:57;;;;;;;6.10;3.28;;;11.70;99.90;;;;;;4958735;28;20034;-77
2023/11/01 05:49:23;;;;;;;5.72;3.38;;;11.70;99.90;;;;;;4976096;28;20023;-77
2023/11/01 05:51:49;;;;;;;7.18;3.60;;;11.80;99.90;;;;;;4958601;28;20050;-77
2023/11/01 05:54:14;;;;;;;6.57;4.35;;;11.80;99.90;;;;;;4958827;28;20018;-76
2023/11/01 05:56:41;;;;;;;7.28;3.15;;;11.80;99.90;;;;;;4975737;28;20027;-76
2023/11/01 05:59:09;;;;;;;7.10;3.90;;;12.00;99.90;;;;;;4975998;28;20467;-76
2023/11/01 06:01:35;;;;;;;11.77;4.33;;;11.90;99.90;;;;;;4976405;28;20026;-76
2023/11/01 06:04:00;;;;;;;8.57;4.05;;;11.90;99.90;;;;;;4975983;28;20619;-77
2023/11/01 06:06:26;;;;;;;7.47;4.10;;;12.00;99.90;;;;;;4958425;28;20359;-77
2023/11/01 06:08:52;;;;;;;7.18;3.63;;;12.00;99.90;;;;;;4975636;28;20022;-77
2023/11/01 06:11:18;;;;;;;6.35;3.70;;;12.00;99.90;;;;;;4975642;28;20027;-77
2023/11/01 06:13:43;;;;;;;8.85;4.40;;;12.00;99.90;;;;;;4975684;28;20038;-77
2023/11/01 06:16:10;;;;;;;12.60;5.00;;;12.00;99.90;;;;;;4958260;28;20081;-77
2023/11/01 06:18:36;;;;;;;12.40;4.18;;;12.00;99.90;;;;;;4975816;28;20027;-77
2023/11/01 06:21:02;;;;;;;10.55;4.20;;;12.00;99.90;;;;;;4957828;28;20027;-78
2023/11/01 06:23:27;;;;;;;10.82;4.38;;;12.00;99.90;;;;;;4975878;28;20470;-77
2023/11/01 06:25:53;;;;;;;18.00;4.95;;;12.00;99.90;;;;;;4957870;28;20394;-77
2023/11/01 06:28:20;;;;;;;9.00;3.65;;;12.20;99.90;;;;;;4975534;28;20027;-77
2023/11/01 06:30:45;;;;;;;12.13;3.25;;;12.10;99.90;;;;;;4957911;28;20074;-77
2023/11/01 06:33:11;;;;;;;11.95;3.70;;;12.10;99.90;;;;;;4975129;28;20051;-77
2023/11/01 06:35:37;;;;;;;12.30;3.13;;;12.10;99.90;;;;;;4975235;28;20394;-77
2023/11/01 06:38:03;;;;;;;12.23;3.30;;;12.10;99.90;;;;;;4957754;28;20030;-77
2023/11/01 06:40:29;;;;;;;9.82;2.70;;;12.20;99.90;;;;;;4975413;28;20023;-77
2023/11/01 06:42:55;;;;;;;10.93;2.92;;;12.20;99.90;;;;;;4957807;28;20072;-77
2023/11/01 06:45:21;;;;;;;13.82;3.05;;;12.10;99.90;;;;;;4975260;28;20109;-77
2023/11/01 06:47:47;;;;;;;9.68;2.60;;;12.20;99.90;;;;;;4957109;28;20073;-77
2023/11/01 06:50:12;;;;;;;11.32;2.33;;;12.20;99.90;;;;;;4974548;28;20486;-77
2023/11/01 06:52:43;;;;;;;16.55;3.30;;;12.20;99.90;;;;;;4974987;28;20487;-77
2023/11/01 06:55:09;;;;;;;14.32;2.28;;;12.20;99.90;;;;;;4957731;28;20130;-77
2023/11/01 06:57:35;;;;;;;9.63;1.98;;;12.20;99.90;;;;;;4974872;28;20062;-77
2023/11/01 07:00:00;;;;;;;14.50;2.60;;;12.20;99.90;;;;;;4974813;28;20038;-77
2023/11/01 07:02:26;;;;;;;15.82;2.55;;;12.20;99.90;;;;;;4957251;28;20023;-77
2023/11/01 07:04:52;;;;;;;15.48;3.08;;;12.20;99.90;;;;;;4957385;28;20021;-77
2023/11/01 07:07:17;;;;;;;17.77;3.45;;;12.30;99.90;;;;;;4957256;28;20026;-77
2023/11/01 07:09:43;;;;;;;20.67;2.75;;;12.30;99.90;;;;;;4974679;28;20054;-77
2023/11/01 07:12:08;;;;;;;6.35;2.15;;;12.30;99.90;;;;;;4957525;28;20034;-77
2023/11/01 07:14:34;;;;;;;12.60;3.45;;;12.30;99.90;;;;;;4974715;28;20395;-77
2023/11/01 07:17:01;;;;;;;19.40;2.25;;;12.30;99.90;;;;;;4975083;28;20474;-77
2023/11/01 07:19:26;;;;;;;11.30;1.40;;;12.40;99.90;;;;;;4957280;28;20027;-77
2023/11/01 07:21:52;;;;;;;6.63;1.48;;;12.40;99.90;;;;;;4975278;28;20378;-77
2023/11/01 07:24:17;;;;;;;14.18;1.80;;;12.40;99.90;;;;;;4974725;28;20525;-77
2023/11/01 07:26:43;;;;;;;10.23;2.33;;;12.40;99.90;;;;;;4974594;28;20015;-77
2023/11/01 07:29:09;;;;;;;4.45;1.30;;;12.40;99.90;;;;;;4974953;28;20418;-77
2023/11/01 07:31:34;;;;;;;13.48;1.83;;;12.80;99.90;;;;;;4957071;28;20022;-77
2023/11/01 07:34:00;;;;;;;6.65;0.80;;;12.40;99.90;;;;;;4974795;28;20082;-77
2023/11/01 07:36:26;;;;;;;7.28;1.17;;;12.50;99.90;;;;;;4974232;28;20083;-77
2023/11/01 07:38:52;;;;;;;6.82;0.52;;;12.50;99.90;;;;;;4956826;28;20027;-77
2023/11/01 07:41:17;;;;;;;4.32;0.90;;;12.50;99.90;;;;;;4957262;28;20018;-77
2023/11/01 07:43:43;;;;;;;14.25;0.98;;;12.50;99.90;;;;;;4974554;28;20031;-77
2023/11/01 07:46:09;;;;;;;7.00;0.60;;;12.40;99.90;;;;;;4974466;28;20022;-77
2023/11/01 07:48:37;;;;;;;8.75;0.70;;;12.50;99.90;;;;;;4956957;28;20038;-77
2023/11/01 07:51:07;;;;;;;7.03;1.07;;;12.60;99.90;;;;;;4974540;28;20502;-77
2023/11/01 07:53:33;;;;;;;6.20;0.80;;;12.50;99.90;;;;;;4957084;28;20266;-77
2023/11/01 07:55:59;;;;;;;11.18;1.45;;;12.60;99.90;;;;;;4956986;28;20449;-77
2023/11/01 07:58:29;;;;;;;5.78;0.30;;;12.60;99.90;;;;;;4974322;28;20027;-77
2023/11/01 08:00:55;;;;;;;7.28;1.13;;;12.60;99.90;;;;;;4976926;28;20026;-77
2023/11/01 08:03:20;;;;;;;6.20;0.40;;;12.70;99.90;;;;;;4978743;28;20022;-77
2023/11/01 08:05:46;;;;;;;3.08;0.63;;;12.70;99.90;;;;;;4978136;28;20038;-77
2023/11/01 08:08:11;;;;;;;9.40;1.38;;;12.70;99.90;;;;;;4978252;28;20070;-77
2023/11/01 08:10:37;;;;;;;7.40;0.77;;;12.70;99.90;;;;;;4961393;28;20026;-77
2023/11/01 08:13:03;;;;;;;12.73;0.45;;;12.80;99.90;;;;;;4960793;28;20039;-77
2023/11/01 08:15:33;;;;;;;7.55;0.10;;;12.70;99.90;;;;;;4977946;28;20065;-77
2023/11/01 08:18:02;;;;;;;9.50;0.65;;;12.80;99.90;;;;;;4978144;28;20109;-77
2023/11/01 08:20:30;;;;;;;5.97;1.40;;;12.80;99.90;;;;;;4960760;28;20033;-77
2023/11/01 08:22:58;;;;;;;8.23;0.85;;;12.90;99.90;;;;;;4977981;28;20019;-77
2023/11/01 08:25:24;;;;;;;;;;;12.90;99.90;;;;;;4978087;28;20054;-77
2023/11/01 08:27:50;;;;;;;4.80;0.52;;;12.90;99.90;;;;;;4960347;28;19913;-77
2023/11/01 08:30:17;;;;;;;4.28;0.88;;;13.50;99.90;;;;;;4977974;28;20023;-77
2023/11/01 08:32:43;;;;;;;15.00;1.05;;;13.20;99.90;;;;;;4960709;28;20023;-77
2023/11/01 08:35:09;;;;;;;6.22;0.30;;;12.90;99.90;;;;;;4978032;28;20038;-77
2023/11/01 08:37:37;;;;;;;5.60;0.20;;;12.90;99.90;;;;;;4977472;28;20037;-77
2023/11/01 08:40:03;;;;;;;11.52;1.38;;;12.90;99.90;;;;;;4977660;28;20030;-77
2023/11/01 08:42:29;;;;;;;8.18;0.22;;;13.00;99.90;;;;;;4977448;28;20038;-77
2023/11/01 08:44:55;;;;;;;11.32;1.48;;;13.00;99.90;;;;;;4977961;28;20378;-77
2023/11/01 08:47:36;;;;;;;7.35;0.35;;;13.00;99.90;;;;;;4977160;28;20431;-77
2023/11/01 08:50:02;;;;;;;2.40;0.30;;;13.00;99.90;;;;;;4977358;28;20054;-77
2023/11/01 08:52:32;;;;;;;15.70;1.38;;;13.00;99.90;;;;;;4977313;28;20031;-76
2023/11/01 08:54:59;;;;;;;2.38;0.20;;;13.00;99.90;;;;;;4977049;28;20037;-76
2023/11/01 08:57:25;;;;;;;11.65;0.50;;;13.00;99.90;;;;;;4977643;28;20026;-76
2023/11/01 08:59:54;;;;;;;5.72;0.32;;;13.00;99.90;;;;;;4977572;28;20030;-76
2023/11/01 09:02:20;;;;;;;11.30;1.15;;;13.10;99.90;;;;;;4976944;28;20082;-76
2023/11/01 09:04:45;;;;;;;7.07;0.65;;;13.30;99.90;;;;;;4976925;28;20035;-76
2023/11/01 09:07:11;;;;;;;8.70;1.02;;;13.60;99.90;;;;;;4976795;28;20054;-76
2023/11/01 09:09:37;;;;;;;6.63;0.70;;;13.20;99.90;;;;;;4976851;28;20031;-76
2023/11/01 09:12:07;;;;;;;3.17;0.55;;;13.20;99.90;;;;;;4975847;28;20147;-76
2023/11/01 09:14:32;;;;;;;;;;;13.30;99.90;;;;;;4977138;28;20126;-76
2023/11/01 09:16:58;;;;;;;4.85;0.90;;;13.30;99.90;;;;;;4976715;28;20452;-76
2023/11/01 09:19:24;;;;;;;9.73;0.90;;;13.40;99.90;;;;;;4976596;28;20479;-76
2023/11/01 09:21:50;;;;;;;7.00;0.50;;;13.70;99.90;;;;;;4976644;28;20045;-76
2023/11/01 09:24:16;;;;;;;7.28;0.10;;;13.40;99.90;;;;;;4976573;28;20078;-76
2023/11/01 09:26:42;;;;;;;4.53;0.30;;;13.50;99.90;;;;;;4975158;28;20027;-76
2023/11/01 09:29:07;;;;;;;5.43;0.60;;;13.50;99.90;;;;;;4976446;28;20095;-76
2023/11/01 09:31:36;;;;;;;8.80;0.70;;;13.50;99.90;;;;;;4976392;28;20073;-76
2023/11/01 09:34:01;;;;;;;;;;;13.50;99.90;;;;;;4959271;28;20038;-75
2023/11/01 09:36:27;;;;;;;7.45;0.60;;;13.50;99.90;;;;;;4976181;28;20326;-76
2023/11/01 09:38:53;;;;;;;6.85;0.52;;;13.50;99.90;;;;;;4976029;28;20023;-75
2023/11/01 09:41:24;;;;;;;6.32;0.32;;;13.50;99.90;;;;;;4976116;28;20027;-76
2023/11/01 09:43:51;;;;;;;2.08;0.30;;;14.80;99.90;;;;;;4976718;28;20029;-75
2023/11/01 09:46:21;;;;;;;7.22;0.10;;;13.50;99.90;;;;;;4975952;28;20149;-75
2023/11/01 09:48:46;;;;;;;6.90;0.30;;;15.00;99.90;;;;;;4975312;28;20026;-75
2023/11/01 09:51:12;;;;;;;5.53;0.13;;;16.30;99.90;;;;;;4958652;28;20030;-75
2023/11/01 09:53:38;;;;;;;9.90;0.55;;;13.70;99.90;;;;;;4958618;28;20065;-76
2023/11/01 09:56:04;;;;;;;10.40;0.50;;;13.80;99.90;;;;;;4958707;28;20121;-77
2023/11/01 09:58:32;;;;;;;11.20;0.73;;;13.80;99.90;;;;;;4975741;28;20027;-76
2023/11/01 10:00:59;;;;;;;6.00;0.00;;;13.90;99.90;;;;;;4958737;28;20026;-74
2023/11/01 10:03:24;;;;;;;6.80;0.75;;;13.90;99.90;;;;;;4958475;28;20113;-75
2023/11/01 10:05:50;;;;;;;7.15;0.10;;;14.00;99.90;;;;;;4958791;28;20050;-75
2023/11/01 10:08:15;;;;;;;5.97;0.17;;;13.90;99.90;;;;;;4958345;28;20499;-75
2023/11/01 10:10:41;;;;;;;3.13;0.10;;;14.00;99.90;;;;;;4975654;28;20026;-75
2023/11/01 10:13:08;;;;;;;4.35;0.32;;;14.00;99.90;;;;;;4975529;28;20023;-75
2023/11/01 10:15:34;;;;;;;5.25;0.10;;;14.50;99.90;;;;;;4975743;28;20027;-76
2023/11/01 10:17:59;;;;;;;2.92;0.10;;;14.10;99.90;;;;;;4975959;28;20078;-75
2023/11/01 10:20:27;;;;;;;2.83;0.00;;;14.00;99.90;;;;;;4976024;28;20078;-76
2023/11/01 10:22:54;;;;;;;8.93;0.60;;;14.10;99.90;;;;;;4976113;28;20386;-78
2023/11/01 10:25:19;;;;;;;3.45;0.47;;;14.10;99.90;;;;;;4976411;28;20030;-77
2023/11/01 10:27:47;;;;;;;2.03;0.00;;;14.30;99.90;;;;;;4976391;28;20030;-77
2023/11/01 10:30:13;;;;;;;6.28;0.20;;;14.40;99.90;;;;;;4958998;28;20101;-78
2023/11/01 10:32:39;;;;;;;4.07;0.25;;;14.20;99.90;;;;;;4976562;28;20546;-77
2023/11/01 10:35:14;;;;;;;5.05;0.10;;;14.90;99.90;;;;;;4976949;28;20065;-78
2023/11/01 10:37:40;;;;;;;2.75;0.10;;;14.20;99.90;;;;;;4974469;28;20033;-77
2023/11/01 10:40:10;;;;;;;8.13;0.10;;;14.30;99.90;;;;;;4976127;28;20031;-78
2023/11/01 10:42:39;;;;;;;5.18;0.32;;;14.30;99.90;;;;;;4958729;28;20030;-78
2023/11/01 10:45:05;;;;;;;4.70;0.00;;;14.40;99.90;;;;;;4975529;28;20442;-78
2023/11/01 10:47:31;;;;;;;3.08;0.00;;;14.40;99.90;;;;;;4975963;28;20027;-80
2023/11/01 10:49:57;;;;;;;4.85;0.17;;;14.50;99.90;;;;;;4977881;28;20089;-79
2023/11/01 10:52:27;;;;;;;6.90;0.22;;;14.50;99.90;;;;;;4960805;28;20058;-79
2023/11/01 10:54:54;;;;;;;3.08;0.28;;;14.50;99.90;;;;;;4960291;28;20445;-79
2023/11/01 10:57:22;;;;;;;4.28;0.05;;;14.50;99.90;;;;;;4977985;28;20034;-79
2023/11/01 10:59:53;;;;;;;;;;;15.90;99.90;;;;;;4978411;28;20031;-79
2023/11/01 11:02:23;;;;;;;6.13;0.30;;;14.50;99.90;;;;;;4959057;28;19906;-77
2023/11/01 11:05:04;;;;;;;4.22;0.17;;;16.30;99.90;;;;;;4975891;28;20086;-77
2023/11/01 11:07:44;;;;;;;2.60;0.22;;;14.50;99.90;;;;;;4973408;28;20070;-77
2023/11/01 11:10:32;;;;;;;2.95;0.00;;;14.40;99.90;;;;;;4957349;28;20057;-77
2023/11/01 11:13:18;;;;;;;5.38;0.50;;;14.30;99.90;;;;;;4958401;28;20077;-78
2023/11/01 11:15:59;;;;;;;4.47;0.10;;;14.30;99.90;;;;;;4975764;28;20033;-76
2023/11/01 11:18:48;;;;;;;6.93;1.00;;;14.30;99.90;;;;;;4977080;28;20031;-78
2023/11/01 11:21:44;;;;;;;2.78;0.50;;;14.20;99.90;;;;;;4971428;28;20039;-78
2023/11/01 11:24:39;;;;;;;6.00;0.10;;;14.20;99.90;;;;;;4959072;28;20094;-79
2023/11/01 11:27:05;;;;;;;2.28;0.00;;;14.20;99.90;;;;;;4976099;28;20026;-79
2023/11/01 11:29:45;;;;;;;4.47;0.10;;;14.20;99.90;;;;;;4976131;28;20035;-79
2023/11/01 11:32:17;;;;;;;1.98;0.00;;;14.20;99.90;;;;;;4976761;28;20030;-79
2023/11/01 11:34:45;;;;;;;8.57;0.30;;;14.20;99.90;;;;;;4959024;28;20027;-79
2023/11/01 11:37:12;;;;;;;3.77;0.37;;;14.30;99.90;;;;;;4978164;28;20081;-80
2023/11/01 11:40:10;;;;;;;7.18;0.00;;;14.30;99.90;;;;;;4975794;28;20289;-79
2023/11/01 11:42:41;;;;;;;4.65;0.05;;;14.30;99.90;;;;;;4955553;28;20035;-77
2023/11/01 11:45:08;;;;;;;3.55;0.00;;;14.40;99.90;;;;;;4959783;28;20026;-79
2023/11/01 11:47:34;;;;;;;4.82;0.40;;;14.50;99.90;;;;;;4960152;28;20022;-79
2023/11/01 11:50:09;;;;;;;3.42;0.32;;;14.50;99.90;;;;;;4977379;28;20026;-79
2023/11/01 11:52:38;;;;;;;4.80;0.52;;;14.50;99.90;;;;;;4977708;28;20462;-80
2023/11/01 11:55:04;;;;;;;10.32;0.40;;;14.50;99.90;;;;;;4977030;28;20019;-79
2023/11/01 11:57:30;;;;;;;5.38;0.35;;;14.60;99.90;;;;;;4977519;28;20035;-79
2023/11/01 12:00:10;;;;;;;5.53;0.00;;;14.70;99.90;;;;;;4977038;28;20030;-79
2023/11/01 12:02:36;;;;;;;6.60;0.20;;;14.90;99.90;;;;;;4976987;28;20030;-80
2023/11/01 12:05:02;;;;;;;1.98;0.10;;;15.40;99.90;;;;;;4976913;28;20359;-79
2023/11/01 12:07:28;;;;;;;8.77;0.65;;;14.90;99.90;;;;;;4977532;28;20483;-79
2023/11/01 12:09:56;;;;;;;2.83;0.10;;;15.00;99.90;;;;;;4977501;28;20150;-79
2023/11/01 12:12:22;;;;;;;5.57;0.57;;;15.80;99.90;;;;;;4959300;28;20478;-79
2023/11/01 12:15:00;;;;;;;7.47;0.15;;;15.00;99.90;;;;;;4977566;28;20378;-79
2023/11/01 12:17:27;;;;;;;8.63;0.05;;;14.70;99.90;;;;;;4977273;28;20582;-80
2023/11/01 12:19:53;;;;;;;5.70;0.20;;;;;;;;;;4959544;28;20038;-79
2023/11/01 12:22:20;;;;;;;1.90;0.10;;;15.00;99.90;;;;;;4976415;28;20027;-79
2023/11/01 12:24:47;;;;;;;8.88;0.38;;;15.00;99.90;;;;;;4976992;28;20083;-80
2023/11/01 12:27:29;;;;;;;5.15;0.17;;;15.10;99.90;;;;;;4976841;28;20499;-80
2023/11/01 12:29:55;;;;;;;4.38;0.10;;;15.10;99.90;;;;;;4976773;28;20069;-80
2023/11/01 12:32:24;;;;;;;1.85;0.00;;;15.20;99.90;;;;;;4959198;28;20375;-80
2023/11/01 12:34:49;;;;;;;4.10;0.55;;;15.20;99.90;;;;;;4959615;28;20089;-79
2023/11/01 12:37:26;;;;;;;5.57;0.25;;;15.20;99.90;;;;;;4977158;28;20023;-79
2023/11/01 12:40:11;;;;;;;5.03;1.23;;;15.20;99.90;;;;;;4977159;28;20402;-80
2023/11/01 12:42:49;;;;;;;5.68;0.35;;;15.20;99.90;;;;;;4959406;28;20023;-80
2023/11/01 12:45:18;;;;;;;2.42;0.03;;;15.20;99.90;;;;;;4976431;28;20093;-80
2023/11/01 12:47:46;;;;;;;3.70;0.30;;;15.20;99.90;;;;;;4961206;28;20037;-80